createdAt,value
2022-12-10T00:01:45.278Z,16.70
2022-12-10T00:04:14.155Z,17.88
2022-12-10T00:06:47.642Z,15.68
2022-12-10T00:09:18.242Z,14.68
2022-12-10T00:11:45.949Z,17.70
2022-12-10T00:14:17.271Z,16.73
2022-12-10T00:16:45.025Z,15.32
2022-12-10T00:19:13.327Z,18.65
2022-12-10T00:21:41.293Z,15.10
2022-12-10T00:24:10.554Z,18.40
2022-12-10T00:26:39.938Z,15.63
2022-12-10T00:29:10.689Z,19.92
2022-12-10T00:31:39.138Z,14.93
2022-12-10T00:34:09.472Z,17.10
2022-12-10T00:36:45.957Z,16.83
2022-12-10T00:39:17.055Z,15.10
2022-12-10T00:41:48.582Z,18.67
2022-12-10T00:44:16.910Z,17.70
2022-12-10T00:46:44.696Z,17.38
2022-12-10T00:49:12.690Z,15.73
2022-12-10T00:51:40.458Z,16.30
2022-12-10T00:54:08.627Z,15.30
2022-12-10T00:56:36.674Z,17.35
2022-12-10T00:59:04.128Z,16.85
2022-12-10T01:01:37.813Z,18.10
2022-12-10T01:04:15.069Z,17.40
2022-12-10T01:06:46.664Z,16.20
2022-12-10T01:09:20.675Z,19.00
2022-12-10T01:11:50.338Z,16.30
2022-12-10T01:14:24.830Z,16.13
2022-12-10T01:16:56.354Z,18.23
2022-12-10T01:19:24.452Z,16.17
2022-12-10T01:21:56.651Z,16.98
2022-12-10T01:24:27.015Z,17.25
2022-12-10T01:26:56.219Z,14.13
2022-12-10T01:29:24.385Z,16.10
2022-12-10T01:31:53.917Z,15.07
2022-12-10T01:34:22.373Z,16.38
2022-12-10T01:36:52.723Z,15.75
2022-12-10T01:39:21.944Z,17.23
2022-12-10T01:41:55.594Z,15.38
2022-12-10T01:44:24.001Z,17.48
2022-12-10T01:46:57.602Z,15.80
2022-12-10T01:49:34.348Z,16.33
2022-12-10T01:52:02.924Z,14.30
2022-12-10T01:54:34.103Z,18.48
2022-12-10T01:57:18.637Z,15.05
2022-12-10T01:59:50.844Z,11.98
2022-12-10T02:02:50.053Z,16.08
2022-12-10T02:05:39.200Z,15.10
2022-12-10T02:08:28.743Z,15.75
2022-12-10T02:11:12.530Z,15.90
2022-12-10T02:14:00.333Z,16.60
2022-12-10T02:16:33.010Z,15.48
2022-12-10T02:19:17.389Z,16.50
2022-12-10T02:21:48.612Z,16.73
2022-12-10T02:24:23.898Z,15.52
2022-12-10T02:27:19.673Z,14.50
2022-12-10T02:29:49.634Z,17.08
2022-12-10T02:32:31.223Z,17.42
2022-12-10T02:35:08.028Z,13.20
2022-12-10T02:37:41.054Z,13.05
2022-12-10T02:40:16.752Z,17.33
2022-12-10T02:42:51.307Z,14.90
2022-12-10T02:45:24.798Z,15.93
2022-12-10T02:47:57.431Z,12.40
2022-12-10T02:50:26.934Z,15.65
2022-12-10T02:52:57.691Z,15.50
2022-12-10T02:55:25.836Z,13.60
2022-12-10T02:58:27.902Z,15.80
2022-12-10T03:01:21.792Z,15.50
2022-12-10T03:04:06.334Z,17.48
2022-12-10T03:06:40.555Z,15.43
2022-12-10T03:09:32.810Z,15.82
2022-12-10T03:12:07.414Z,16.65
2022-12-10T03:14:35.691Z,14.70
2022-12-10T03:17:05.530Z,14.35
2022-12-10T03:19:43.606Z,14.90
2022-12-10T03:22:13.539Z,17.38
2022-12-10T03:24:43.869Z,16.02
2022-12-10T03:27:14.043Z,13.65
2022-12-10T03:29:49.456Z,13.45
2022-12-10T03:32:19.170Z,15.25
2022-12-10T03:34:46.797Z,13.77
2022-12-10T03:37:14.946Z,14.38
2022-12-10T03:39:46.419Z,12.07
2022-12-10T03:42:14.283Z,16.02
2022-12-10T03:44:41.819Z,15.52
2022-12-10T03:47:13.242Z,14.93
2022-12-10T03:49:41.927Z,14.80
2022-12-10T03:52:10.056Z,14.98
2022-12-10T03:54:37.916Z,13.90
2022-12-10T03:57:06.156Z,13.88
2022-12-10T03:59:33.892Z,14.77
2022-12-10T04:02:01.692Z,15.40
2022-12-10T04:04:29.540Z,17.52
2022-12-10T04:06:57.144Z,15.23
2022-12-10T04:09:24.699Z,16.67
2022-12-10T04:11:57.623Z,17.63
2022-12-10T04:14:45.220Z,17.27
2022-12-10T04:17:13.571Z,12.80
2022-12-10T04:19:41.431Z,13.23
2022-12-10T04:22:28.825Z,14.50
2022-12-10T04:25:29.104Z,16.33
2022-12-10T04:27:57.030Z,14.35
2022-12-10T04:30:29.468Z,15.48
2022-12-10T04:32:58.279Z,15.10
2022-12-10T04:35:25.920Z,13.20
2022-12-10T04:37:53.396Z,14.85
2022-12-10T04:40:20.852Z,14.98
2022-12-10T04:42:48.440Z,16.00
2022-12-10T04:45:16.012Z,14.15
2022-12-10T04:47:44.396Z,14.15
2022-12-10T04:50:14.612Z,15.45
2022-12-10T04:52:42.285Z,14.50
2022-12-10T04:55:10.172Z,17.80
2022-12-10T04:57:37.628Z,13.40
2022-12-10T05:00:05.871Z,12.95
2022-12-10T05:02:33.844Z,13.30
2022-12-10T05:05:01.360Z,17.05
2022-12-10T05:07:30.264Z,13.20
2022-12-10T05:10:01.745Z,14.38
2022-12-10T05:12:29.484Z,12.35
2022-12-10T05:14:57.401Z,11.75
2022-12-10T05:17:24.928Z,16.38
2022-12-10T05:19:52.362Z,12.55
2022-12-10T05:22:38.406Z,14.88
2022-12-10T05:25:06.141Z,14.93
2022-12-10T05:27:35.060Z,12.82
2022-12-10T05:30:04.361Z,14.57
2022-12-10T05:32:31.888Z,16.77
2022-12-10T05:34:59.421Z,14.13
2022-12-10T05:37:26.878Z,13.90
2022-12-10T05:39:54.465Z,12.48
2022-12-10T05:42:24.117Z,12.35
2022-12-10T05:44:52.032Z,15.40
2022-12-10T05:47:19.532Z,14.23
2022-12-10T05:49:52.503Z,13.48
2022-12-10T05:52:20.218Z,11.98
2022-12-10T05:54:48.849Z,14.88
2022-12-10T05:57:16.466Z,13.10
2022-12-10T05:59:44.277Z,14.75
2022-12-10T06:02:11.778Z,12.20
2022-12-10T06:04:39.384Z,14.70
2022-12-10T06:07:11.142Z,12.40
2022-12-10T06:09:39.094Z,12.70
2022-12-10T06:12:12.411Z,14.02
2022-12-10T06:14:39.938Z,14.80
2022-12-10T06:17:07.680Z,14.02
2022-12-10T06:19:38.307Z,10.98
2022-12-10T06:22:08.295Z,12.52
2022-12-10T06:24:35.698Z,12.70
2022-12-10T06:27:03.438Z,13.32
2022-12-10T06:29:31.307Z,11.50
2022-12-10T06:31:58.791Z,14.40
2022-12-10T06:34:26.378Z,14.95
2022-12-10T06:36:54.774Z,15.43
2022-12-10T06:39:22.277Z,15.00
2022-12-10T06:41:49.838Z,12.65
2022-12-10T06:44:17.299Z,16.60
2022-12-10T06:46:47.246Z,16.58
2022-12-10T06:49:14.742Z,16.75
2022-12-10T06:51:42.511Z,17.67
2022-12-10T06:54:10.295Z,16.77
2022-12-10T06:56:37.911Z,14.43
2022-12-10T06:59:07.441Z,16.40
2022-12-10T07:01:35.145Z,15.23
2022-12-10T07:04:03.063Z,16.80
2022-12-10T07:06:32.465Z,19.27
2022-12-10T07:09:00.163Z,18.35
2022-12-10T07:11:27.860Z,16.75
2022-12-10T07:13:55.963Z,16.60
2022-12-10T07:16:31.039Z,15.20
2022-12-10T07:19:02.649Z,18.08
2022-12-10T07:21:34.363Z,14.68
2022-12-10T07:24:14.408Z,16.67
2022-12-10T07:26:44.571Z,14.43
2022-12-10T07:29:20.659Z,19.55
2022-12-10T07:31:49.746Z,16.73
2022-12-10T07:34:17.648Z,16.48
2022-12-10T07:36:45.632Z,16.17
2022-12-10T07:39:20.617Z,17.83
2022-12-10T07:41:53.282Z,15.25
2022-12-10T07:44:23.464Z,17.50
2022-12-10T07:46:52.724Z,14.88
2022-12-10T07:49:20.524Z,16.35
2022-12-10T07:51:53.254Z,19.60
2022-12-10T07:54:21.235Z,16.42
2022-12-10T07:56:48.721Z,17.63
2022-12-10T07:59:16.556Z,15.48
2022-12-10T08:01:44.549Z,15.32
2022-12-10T08:04:12.119Z,17.58
2022-12-10T08:06:39.953Z,15.35
2022-12-10T08:09:08.124Z,13.70
2022-12-10T08:11:35.873Z,16.27
2022-12-10T08:14:06.097Z,14.98
2022-12-10T08:16:33.707Z,15.48
2022-12-10T08:19:04.549Z,16.98
2022-12-10T08:21:36.194Z,15.18
2022-12-10T08:24:03.783Z,14.45
2022-12-10T08:26:33.696Z,14.25
2022-12-10T08:29:01.873Z,14.48
2022-12-10T08:31:36.886Z,15.40
2022-12-10T08:34:11.277Z,16.83
2022-12-10T08:36:38.700Z,14.38
2022-12-10T08:39:06.261Z,13.35
2022-12-10T08:41:33.706Z,14.75
2022-12-10T08:44:14.366Z,12.75
2022-12-10T08:46:42.306Z,12.85
2022-12-10T08:49:09.736Z,13.70
2022-12-10T08:51:44.478Z,14.05
2022-12-10T08:54:11.889Z,16.55
2022-12-10T08:56:40.464Z,11.95
2022-12-10T08:59:08.482Z,12.05
2022-12-10T09:01:35.970Z,11.30
2022-12-10T09:04:03.506Z,14.75
2022-12-10T09:06:31.828Z,13.95
2022-12-10T09:08:59.330Z,11.20
2022-12-10T09:11:33.343Z,15.57
2022-12-10T09:14:01.946Z,12.95
2022-12-10T09:16:37.484Z,14.63
2022-12-10T09:19:05.568Z,14.10
2022-12-10T09:21:33.619Z,14.98
2022-12-10T09:24:01.366Z,11.95
2022-12-10T09:26:29.169Z,13.38
2022-12-10T09:28:58.852Z,12.32
2022-12-10T09:31:27.761Z,11.77
2022-12-10T09:33:55.278Z,15.38
2022-12-10T09:36:25.473Z,13.43
2022-12-10T09:38:56.147Z,11.38
2022-12-10T09:41:35.684Z,15.63
2022-12-10T09:44:21.500Z,12.38
2022-12-10T09:46:56.871Z,11.38
2022-12-10T09:49:57.475Z,15.85
2022-12-10T09:52:27.651Z,12.45
2022-12-10T09:55:05.211Z,12.65
2022-12-10T09:57:38.714Z,13.27
2022-12-10T10:00:20.023Z,13.40
2022-12-10T10:02:47.795Z,15.13
2022-12-10T10:05:22.485Z,13.32
2022-12-10T10:07:54.493Z,11.85
2022-12-10T10:10:38.112Z,14.30
2022-12-10T10:13:08.647Z,13.88
2022-12-10T10:15:39.077Z,15.13
2022-12-10T10:18:12.521Z,14.38
2022-12-10T10:20:40.300Z,15.65
2022-12-10T10:23:09.124Z,14.02
2022-12-10T10:25:36.712Z,13.70
2022-12-10T10:28:04.488Z,13.52
2022-12-10T10:30:32.185Z,15.13
2022-12-10T10:33:10.508Z,15.27
2022-12-10T10:35:48.284Z,12.93
2022-12-10T10:38:25.086Z,12.50
2022-12-10T10:40:58.698Z,15.32
2022-12-10T10:43:32.190Z,13.68
2022-12-10T10:46:03.410Z,12.23
2022-12-10T10:48:30.958Z,14.60
2022-12-10T10:51:07.796Z,13.43
2022-12-10T10:53:44.819Z,14.30
2022-12-10T10:56:43.834Z,14.82
2022-12-10T10:59:36.589Z,13.63
2022-12-10T11:02:30.800Z,13.85
2022-12-10T11:05:04.917Z,13.23
2022-12-10T11:07:40.562Z,13.68
2022-12-10T11:10:21.370Z,16.50
2022-12-10T11:13:05.087Z,16.00
2022-12-10T11:15:36.070Z,15.82
2022-12-10T11:18:23.227Z,15.43
2022-12-10T11:21:01.663Z,15.32
2022-12-10T11:23:39.506Z,15.75
2022-12-10T11:26:12.830Z,16.85
2022-12-10T11:28:44.160Z,15.40
2022-12-10T11:31:23.010Z,14.13
2022-12-10T11:33:56.876Z,13.02
2022-12-10T11:36:44.221Z,15.13
2022-12-10T11:40:18.250Z,12.82
2022-12-10T11:43:26.277Z,11.23
2022-12-10T11:46:11.427Z,11.88
2022-12-10T11:49:35.843Z,14.68
2022-12-10T11:52:19.144Z,15.32
2022-12-10T11:55:15.822Z,13.32
2022-12-10T11:58:02.222Z,14.88
2022-12-10T12:00:58.143Z,12.13
2022-12-10T12:03:45.515Z,13.07
2022-12-10T12:06:33.480Z,16.48
2022-12-10T12:09:14.485Z,12.82
2022-12-10T12:12:33.111Z,14.37
2022-12-10T12:15:18.380Z,9.70
2022-12-10T12:17:54.736Z,12.05
2022-12-10T12:20:28.811Z,15.02
2022-12-10T12:23:03.538Z,12.50
2022-12-10T12:25:41.611Z,10.43
2022-12-10T12:28:20.169Z,14.35
2022-12-10T12:30:51.964Z,13.25
2022-12-10T12:33:43.539Z,16.33
2022-12-10T12:36:21.683Z,13.73
2022-12-10T12:39:27.371Z,11.85
2022-12-10T12:42:05.860Z,13.27
2022-12-10T12:44:58.702Z,12.95
2022-12-10T12:47:41.862Z,12.02
2022-12-10T12:50:30.852Z,14.18
2022-12-10T12:53:00.448Z,12.10
2022-12-10T12:55:32.756Z,10.68
2022-12-10T12:58:03.488Z,12.15
2022-12-10T13:00:37.166Z,11.67
2022-12-10T13:03:30.661Z,11.98
2022-12-10T13:06:19.872Z,14.77
2022-12-10T13:09:07.549Z,13.73
2022-12-10T13:11:37.196Z,13.45
2022-12-10T13:14:08.713Z,11.75
2022-12-10T13:16:39.275Z,15.02
2022-12-10T13:19:22.171Z,12.93
2022-12-10T13:21:53.097Z,14.10
2022-12-10T13:24:23.260Z,13.90
2022-12-10T13:27:12.875Z,13.18
2022-12-10T13:29:49.285Z,14.65
2022-12-10T13:32:24.089Z,15.23
2022-12-10T13:35:09.808Z,15.85
2022-12-10T13:37:57.125Z,15.57
2022-12-10T13:40:30.901Z,11.60
2022-12-10T13:43:44.533Z,15.10
2022-12-10T13:46:26.620Z,15.45
2022-12-10T13:48:56.373Z,8.93
2022-12-10T13:51:38.373Z,16.27
2022-12-10T13:54:43.172Z,14.05
2022-12-10T13:57:20.769Z,16.60
2022-12-10T14:00:00.269Z,16.25
2022-12-10T14:02:51.692Z,11.80
2022-12-10T14:05:42.078Z,13.07
2022-12-10T14:08:19.780Z,11.82
2022-12-10T14:10:48.422Z,13.23
2022-12-10T14:13:19.645Z,12.85
2022-12-10T14:15:59.590Z,14.27
2022-12-10T14:18:32.087Z,12.07
2022-12-10T14:21:06.038Z,16.50
2022-12-10T14:23:41.039Z,15.70
2022-12-10T14:26:16.587Z,16.05
2022-12-10T14:28:50.770Z,14.95
2022-12-10T14:31:22.808Z,15.82
2022-12-10T14:33:52.538Z,16.00
2022-12-10T14:36:42.246Z,11.27
2022-12-10T14:39:17.108Z,13.77
2022-12-10T14:41:46.255Z,11.50
2022-12-10T14:44:17.201Z,14.07
2022-12-10T14:46:47.432Z,11.07
2022-12-10T14:49:20.318Z,16.48
2022-12-10T14:53:02.176Z,13.38
2022-12-10T14:55:29.982Z,13.85
2022-12-10T14:58:04.184Z,14.52
2022-12-10T15:00:32.578Z,16.50
2022-12-10T15:03:10.315Z,18.27
2022-12-10T15:05:38.716Z,9.82
2022-12-10T15:08:09.062Z,12.35
2022-12-10T15:10:43.826Z,10.43
2022-12-10T15:13:24.602Z,17.95
2022-12-10T15:18:39.488Z,12.90
2022-12-10T15:21:11.544Z,9.32
2022-12-10T15:23:41.629Z,20.27
2022-12-10T15:26:23.631Z,14.70
2022-12-10T15:28:52.756Z,14.05
2022-12-10T15:31:20.507Z,13.60
2022-12-10T15:33:53.644Z,11.02
2022-12-10T15:36:38.434Z,16.08
2022-12-10T15:39:12.215Z,14.13
2022-12-10T15:41:46.115Z,9.68
2022-12-10T15:44:32.275Z,7.18
2022-12-10T15:47:21.466Z,15.27
2022-12-10T15:49:51.071Z,12.00
2022-12-10T15:52:36.895Z,13.00
2022-12-10T15:55:05.325Z,14.82
2022-12-10T15:57:38.171Z,9.20
2022-12-10T16:00:21.151Z,8.80
2022-12-10T16:03:05.496Z,11.82
2022-12-10T16:05:38.357Z,12.07
2022-12-10T16:08:28.142Z,8.80
2022-12-10T16:11:01.739Z,7.20
2022-12-10T16:13:37.687Z,10.48
2022-12-10T16:16:10.853Z,10.00
2022-12-10T16:18:39.019Z,7.25
2022-12-10T16:21:08.858Z,7.03
2022-12-10T16:23:38.399Z,8.40
2022-12-10T16:26:19.025Z,7.10
2022-12-10T16:28:49.600Z,8.30
2022-12-10T16:31:21.012Z,6.78
2022-12-10T16:33:53.060Z,5.63
2022-12-10T16:36:20.830Z,7.60
2022-12-10T16:38:48.493Z,6.18
2022-12-10T16:41:24.514Z,7.72
2022-12-10T16:43:52.275Z,7.63
2022-12-10T16:46:19.810Z,5.40
2022-12-10T16:48:47.544Z,7.38
2022-12-10T16:51:32.122Z,7.90
2022-12-10T16:53:59.657Z,9.93
2022-12-10T16:56:27.758Z,9.88
2022-12-10T16:58:56.081Z,9.90
2022-12-10T17:01:28.621Z,9.88
2022-12-10T17:03:57.226Z,9.18
2022-12-10T17:06:25.425Z,9.82
2022-12-10T17:08:53.775Z,7.85
2022-12-10T17:11:51.614Z,10.00
2022-12-10T17:14:27.981Z,6.82
2022-12-10T17:16:58.880Z,10.60
2022-12-10T17:19:31.490Z,8.98
2022-12-10T17:22:01.398Z,6.70
2022-12-10T17:24:30.494Z,6.30
2022-12-10T17:27:05.331Z,5.60
2022-12-10T17:29:39.225Z,10.85
2022-12-10T17:32:12.623Z,5.38
2022-12-10T17:34:40.587Z,4.75
2022-12-10T17:37:18.359Z,4.22
2022-12-10T17:39:48.746Z,11.15
2022-12-10T17:42:16.574Z,6.45
2022-12-10T17:44:44.148Z,8.07
2022-12-10T17:47:25.543Z,9.65
2022-12-10T17:49:56.530Z,7.25
2022-12-10T17:52:24.187Z,6.32
2022-12-10T17:54:51.889Z,15.70
2022-12-10T17:57:22.411Z,10.05
2022-12-10T17:59:50.482Z,8.00
2022-12-10T18:02:18.061Z,8.05
2022-12-10T18:04:48.725Z,10.38
2022-12-10T18:07:19.829Z,9.43
2022-12-10T18:09:48.085Z,9.07
2022-12-10T18:12:15.756Z,5.28
2022-12-10T18:14:44.122Z,7.97
2022-12-10T18:17:13.949Z,10.93
2022-12-10T18:19:49.040Z,7.15
2022-12-10T18:22:21.755Z,13.07
2022-12-10T18:24:49.411Z,8.15
2022-12-10T18:27:19.627Z,9.02
2022-12-10T18:29:47.404Z,6.53
2022-12-10T18:32:15.088Z,12.50
2022-12-10T18:34:43.021Z,10.30
2022-12-10T18:37:11.683Z,12.40
2022-12-10T18:39:46.128Z,15.43
2022-12-10T18:42:13.788Z,15.98
2022-12-10T18:44:44.244Z,14.30
2022-12-10T18:47:13.001Z,11.18
2022-12-10T18:49:40.530Z,8.52
2022-12-10T18:52:08.567Z,14.20
2022-12-10T18:54:36.593Z,16.52
2022-12-10T18:57:32.341Z,14.82
2022-12-10T18:59:51.521Z,14.05
2022-12-10T19:02:19.036Z,16.30
2022-12-10T19:04:46.488Z,16.65
2022-12-10T19:07:14.202Z,6.57
2022-12-10T19:09:42.886Z,13.15
2022-12-10T19:12:11.260Z,11.68
2022-12-10T19:14:39.082Z,16.38
2022-12-10T19:17:06.640Z,17.92
2022-12-10T19:19:34.506Z,13.93
2022-12-10T19:22:02.096Z,11.10
2022-12-10T19:24:29.623Z,18.08
2022-12-10T19:26:57.337Z,17.40
2022-12-10T19:29:24.910Z,14.80
2022-12-10T19:31:52.773Z,14.90
2022-12-10T19:34:21.224Z,12.65
2022-12-10T19:36:52.195Z,17.60
2022-12-10T19:39:23.179Z,18.90
2022-12-10T19:41:52.157Z,14.60
2022-12-10T19:44:19.763Z,18.35
2022-12-10T19:46:50.053Z,18.38
2022-12-10T19:49:18.817Z,18.20
2022-12-10T19:51:47.407Z,17.05
2022-12-10T19:54:15.009Z,15.32
2022-12-10T19:56:42.838Z,15.80
2022-12-10T19:59:15.146Z,20.85
2022-12-10T20:01:44.103Z,15.48
2022-12-10T20:04:13.706Z,16.05
2022-12-10T20:06:43.373Z,20.50
2022-12-10T20:09:23.971Z,14.20
2022-12-10T20:11:52.326Z,17.10
2022-12-10T20:14:20.670Z,12.07
2022-12-10T20:16:51.157Z,16.25
2022-12-10T20:19:21.266Z,16.90
2022-12-10T20:21:49.042Z,13.25
2022-12-10T20:24:16.567Z,15.63
2022-12-10T20:26:48.010Z,17.25
2022-12-10T20:29:19.134Z,15.07
2022-12-10T20:31:49.204Z,13.90
2022-12-10T20:34:18.226Z,16.20
2022-12-10T20:36:46.081Z,19.98
2022-12-10T20:39:21.092Z,19.77
2022-12-10T20:41:50.361Z,19.77
2022-12-10T20:44:18.794Z,20.20
2022-12-10T20:46:47.107Z,12.77
2022-12-10T20:49:16.629Z,18.35
2022-12-10T20:51:46.582Z,20.60
2022-12-10T20:54:14.327Z,18.13
2022-12-10T20:56:42.263Z,21.30
2022-12-10T20:59:16.375Z,19.15
2022-12-10T21:01:44.181Z,19.45
2022-12-10T21:04:12.852Z,21.88
2022-12-10T21:06:43.098Z,23.27
2022-12-10T21:09:12.347Z,22.23
2022-12-10T21:11:39.932Z,23.52
2022-12-10T21:14:44.481Z,21.38
2022-12-10T21:17:01.648Z,23.15
2022-12-10T21:19:30.464Z,18.85
2022-12-10T21:22:00.072Z,18.55
2022-12-10T21:24:27.829Z,20.15
2022-12-10T21:26:55.484Z,21.85
2022-12-10T21:29:25.422Z,21.33
2022-12-10T21:31:53.063Z,16.30
2022-12-10T21:34:20.560Z,22.30
2022-12-10T21:36:48.232Z,17.70
2022-12-10T21:39:17.378Z,23.20
2022-12-10T21:42:06.340Z,24.55
2022-12-10T21:44:33.944Z,22.65
2022-12-10T21:47:01.400Z,24.50
2022-12-10T21:49:28.880Z,21.27
2022-12-10T21:51:57.080Z,17.90
2022-12-10T21:54:24.640Z,26.17
2022-12-10T21:56:52.213Z,19.95
2022-12-10T21:59:19.757Z,12.20
2022-12-10T22:01:47.238Z,20.02
2022-12-10T22:04:17.584Z,23.80
2022-12-10T22:06:45.628Z,19.80
2022-12-10T22:09:13.970Z,20.67
2022-12-10T22:11:41.623Z,17.80
2022-12-10T22:14:09.205Z,24.58
2022-12-10T22:16:36.661Z,19.52
2022-12-10T22:19:04.057Z,21.25
2022-12-10T22:21:31.782Z,21.83
2022-12-10T22:23:59.281Z,20.83
2022-12-10T22:26:26.899Z,20.88
2022-12-10T22:28:56.609Z,22.15
2022-12-10T22:31:24.418Z,12.88
2022-12-10T22:33:51.948Z,19.50
2022-12-10T22:36:19.503Z,19.23
2022-12-10T22:38:47.765Z,21.23
2022-12-10T22:41:16.501Z,21.13
2022-12-10T22:43:52.252Z,20.05
2022-12-10T22:46:21.454Z,15.85
2022-12-10T22:48:49.202Z,19.88
2022-12-10T22:51:17.272Z,23.95
2022-12-10T22:53:44.989Z,19.38
2022-12-10T22:56:14.031Z,24.85
2022-12-10T22:58:42.024Z,17.63
2022-12-10T23:01:18.407Z,18.98
2022-12-10T23:03:46.736Z,16.90
2022-12-10T23:06:14.301Z,17.02
2022-12-10T23:08:43.753Z,19.90
2022-12-10T23:11:13.057Z,18.38
2022-12-10T23:13:40.731Z,16.27
2022-12-10T23:16:11.317Z,19.10
2022-12-10T23:18:39.595Z,18.52
2022-12-10T23:21:24.942Z,16.90
2022-12-10T23:23:53.112Z,20.45
2022-12-10T23:26:21.637Z,16.90
2022-12-10T23:28:50.453Z,17.63
2022-12-10T23:31:20.200Z,15.77
2022-12-10T23:33:47.678Z,19.35
2022-12-10T23:36:15.166Z,18.20
2022-12-10T23:38:42.664Z,19.90
2022-12-10T23:41:11.588Z,23.75
2022-12-10T23:43:39.473Z,18.27
2022-12-10T23:46:08.603Z,18.20
2022-12-10T23:48:36.303Z,19.55
2022-12-10T23:51:04.067Z,20.05
2022-12-10T23:53:31.591Z,21.02
2022-12-10T23:55:59.183Z,18.20
2022-12-10T23:58:26.640Z,17.25
